Time;durP1;ratioP1;P1;durP2;ratioP2;P2;SDS_P1;SDS_P2;PMS_P1;PMS_P2;Temp;Humidity;BMP_temperature;BMP_pressure;BME280_temperature;BME280_humidity;BME280_pressure;Samples;Min_cycle;Max_cycle;Signal;HPM_P1;HPM_P2
2022/01/19 00:01:31;;;;;;;12.07;6.00;;;;;;;-0.78;100.00;100243.88;4975712;28;20195;-61
2022/01/19 00:03:59;;;;;;;9.77;5.70;;;;;;;-0.72;100.00;100244.63;4970420;28;20295;-61
2022/01/19 00:06:25;;;;;;;10.37;5.80;;;;;;;-0.78;100.00;100241.31;4978980;28;20211;-61
2022/01/19 00:08:52;;;;;;;10.30;5.30;;;;;;;-0.83;100.00;100232.06;4991140;28;20189;-61
2022/01/19 00:11:19;;;;;;;11.37;5.23;;;;;;;-0.87;100.00;100221.03;4989339;28;20637;-60
2022/01/19 00:13:49;;;;;;;13.07;4.97;;;;;;;-0.90;100.00;100200.59;4990717;28;20303;-61
2022/01/19 00:16:15;;;;;;;9.47;5.73;;;;;;;-0.97;100.00;100192.25;4988651;28;20228;-61
2022/01/19 00:18:42;;;;;;;10.00;5.60;;;;;;;-1.07;100.00;100183.97;4971006;28;20189;-61
2022/01/19 00:21:09;;;;;;;9.27;5.23;;;;;;;-1.05;100.00;100182.16;4970080;28;20198;-61
2022/01/19 00:23:36;;;;;;;9.57;5.13;;;;;;;-1.14;100.00;100181.56;4971079;28;20223;-61
2022/01/19 00:26:03;;;;;;;12.37;5.57;;;;;;;-1.15;100.00;100187.56;4971315;28;20450;-61
2022/01/19 00:28:30;;;;;;;11.90;6.50;;;;;;;-1.18;100.00;100193.63;4961218;28;20201;-60
2022/01/19 00:30:58;;;;;;;9.47;6.40;;;;;;;-1.22;100.00;100195.41;4950722;29;20301;-61
2022/01/19 00:33:25;;;;;;;18.20;7.43;;;;;;;-1.21;100.00;100191.97;4957757;28;20700;-61
2022/01/19 00:35:53;;;;;;;10.07;5.77;;;;;;;-1.16;100.00;100189.31;4981419;28;20566;-61
2022/01/19 00:38:20;;;;;;;10.20;6.70;;;;;;;-1.14;100.00;100187.56;4988028;28;20199;-59
2022/01/19 00:40:47;;;;;;;11.23;7.30;;;;;;;-1.15;100.00;100193.56;4989022;28;20212;-60
2022/01/19 00:43:15;;;;;;;16.17;8.00;;;;;;;-1.17;100.00;100195.31;4974115;28;20213;-59
2022/01/19 00:45:42;;;;;;;16.03;8.07;;;;;;;-1.21;100.00;100186.84;4970901;28;20185;-60
2022/01/19 00:48:10;;;;;;;14.30;7.53;;;;;;;-1.17;100.00;100179.09;4970803;28;20543;-61
2022/01/19 00:50:37;;;;;;;11.43;6.40;;;;;;;-1.06;100.00;100175.34;4969867;28;20217;-62
2022/01/19 00:53:05;;;;;;;10.67;6.83;;;;;;;-1.00;100.00;100169.25;4971075;28;20215;-61
2022/01/19 00:55:32;;;;;;;12.80;6.73;;;;;;;-1.02;100.00;100172.72;4969462;28;20200;-61
2022/01/19 00:57:58;;;;;;;11.70;6.33;;;;;;;-1.08;100.00;100164.34;4970057;28;20296;-61
2022/01/19 01:00:27;;;;;;;13.73;6.77;;;;;;;-1.02;100.00;100157.34;4969612;28;20259;-61
2022/01/19 01:02:55;;;;;;;9.73;6.30;;;;;;;-1.09;100.00;100167.78;4971121;28;20275;-61
2022/01/19 01:05:23;;;;;;;14.17;6.53;;;;;;;-1.17;100.00;100161.16;4966330;28;20198;-61
2022/01/19 01:07:53;;;;;;;9.27;5.67;;;;;;;-1.14;100.00;100159.38;4952017;29;20194;-60
2022/01/19 01:10:21;;;;;;;9.03;5.60;;;;;;;-1.20;100.00;100156.94;4951413;29;20193;-60
2022/01/19 01:12:50;;;;;;;8.80;5.70;;;;;;;-1.24;100.00;100150.22;4950184;29;20268;-60
2022/01/19 01:15:29;;;;;;;7.90;5.20;;;;;;;-1.32;100.00;100142.69;4952031;28;20202;-60
2022/01/19 01:20:43;;;;;;;14.07;6.90;;;;;;;-1.32;100.00;100072.72;4994112;28;20641;-61
2022/01/19 01:23:11;;;;;;;12.17;6.67;;;;;;;-1.09;100.00;100055.03;4983611;28;20589;-60
2022/01/19 01:25:38;;;;;;;11.80;7.70;;;;;;;-0.82;100.00;100042.28;4971644;28;20547;-60
2022/01/19 01:28:07;;;;;;;14.60;7.90;;;;;;;-0.54;100.00;100021.00;4997838;23;20232;-64
2022/01/19 01:30:34;;;;;;;11.43;6.53;;;;;;;-0.41;100.00;100020.63;4991351;28;20223;-64
2022/01/19 01:33:01;;;;;;;10.60;6.37;;;;;;;-0.42;100.00;100011.25;4990616;28;20272;-64
2022/01/19 01:35:28;;;;;;;12.70;6.03;;;;;;;-0.44;100.00;99998.44;4992320;28;20192;-63
2022/01/19 01:37:57;;;;;;;11.13;6.10;;;;;;;-0.49;100.00;100011.44;4992669;28;20561;-63
2022/01/19 01:40:25;;;;;;;9.60;6.30;;;;;;;-0.64;100.00;100011.88;4993547;28;20742;-62
2022/01/19 01:42:55;;;;;;;10.63;5.27;;;;;;;-0.63;100.00;100024.69;4992396;28;20196;-63
2022/01/19 01:45:27;;;;;;;9.40;5.30;;;;;;;-0.79;100.00;100029.41;4996248;28;20284;-63
2022/01/19 01:48:04;;;;;;;10.07;5.90;;;;;;;-0.88;100.00;100016.84;4999873;28;20222;-63
2022/01/19 01:53:27;;;;;;;7.83;5.07;;;;;;;-1.01;100.00;100013.78;5003082;28;20189;-63
2022/01/19 01:56:06;;;;;;;8.40;4.43;;;;;;;-1.03;100.00;100002.75;4998572;28;20200;-62
2022/01/19 01:58:36;;;;;;;8.73;4.60;;;;;;;-1.06;100.00;100007.94;5006746;28;20787;-63
2022/01/19 02:01:29;;;;;;;6.37;3.60;;;;;;;-0.97;100.00;99996.59;5003399;28;20196;-63
2022/01/19 02:03:58;;;;;;;8.03;4.17;;;;;;;-1.06;100.00;100005.38;5010788;28;20194;-63
2022/01/19 02:06:38;;;;;;;8.90;4.57;;;;;;;-1.09;100.00;100000.34;5012122;28;20272;-63
2022/01/19 02:09:39;;;;;;;8.23;4.33;;;;;;;-1.10;100.00;99994.41;5007393;28;20204;-63
2022/01/19 02:23:16;;;;;;;8.47;4.97;;;;;;;-1.19;100.00;99981.84;5011075;28;20196;-62
2022/01/19 02:25:45;;;;;;;6.23;4.17;;;;;;;-1.13;100.00;99978.25;4998770;28;20200;-63
2022/01/19 02:36:39;;;;;;;9.80;7.05;;;;;;;-0.83;100.00;99968.84;4971005;28;20443;-64
2022/01/19 02:41:52;;;;;;;7.63;4.83;;;;;;;-0.90;100.00;99962.19;4990592;28;20207;-64
2022/01/19 02:46:30;;;;;;;8.80;5.70;;;;;;;-0.97;100.00;99960.69;4990120;28;20184;-64
2022/01/19 02:50:00;;;;;;;8.37;5.07;;;;;;;-1.11;100.00;99944.03;4991943;28;20312;-63
2022/01/19 02:52:28;;;;;;;10.37;5.03;;;;;;;-1.16;100.00;99945.03;4991660;28;20207;-64
2022/01/19 02:54:55;;;;;;;9.87;5.37;;;;;;;-1.19;100.00;99943.41;4991463;28;20185;-64
2022/01/19 02:57:25;;;;;;;8.33;5.07;;;;;;;-1.25;100.00;99939.28;4990378;28;20719;-64
2022/01/19 03:06:27;;;;;;;9.43;4.97;;;;;;;-1.31;100.00;99933.50;4990567;28;20561;-64
2022/01/19 03:11:04;;;;;;;7.77;4.40;;;;;;;-1.70;100.00;99932.00;4990010;28;20243;-62
2022/01/19 03:13:30;;;;;;;5.53;4.20;;;;;;;-1.71;100.00;99928.56;4991239;28;20189;-63
2022/01/19 03:15:58;;;;;;;7.87;4.20;;;;;;;-1.75;100.00;99929.53;4990112;28;20269;-64
2022/01/19 03:18:25;;;;;;;10.80;4.40;;;;;;;-1.68;100.00;99925.09;4989724;28;20221;-64
2022/01/19 03:20:52;;;;;;;7.80;4.57;;;;;;;-1.83;100.00;99927.19;4990035;28;20244;-63
2022/01/19 03:23:20;;;;;;;7.17;4.77;;;;;;;-1.82;100.00;99925.44;4990035;28;20260;-63
2022/01/19 03:25:48;;;;;;;13.10;5.10;;;;;;;-1.88;100.00;99923.03;4986612;28;20498;-64
2022/01/19 03:28:15;;;;;;;7.67;4.50;;;;;;;-1.95;100.00;99924.94;4984398;28;20227;-64
2022/01/19 03:30:42;;;;;;;9.17;4.77;;;;;;;-2.02;100.00;99921.69;4986120;28;20204;-64
2022/01/19 03:33:10;;;;;;;8.73;4.50;;;;;;;-2.07;100.00;99915.84;4991013;28;20207;-64
2022/01/19 03:35:38;;;;;;;9.27;4.60;;;;;;;-2.17;100.00;99911.84;4989409;28;20195;-64
2022/01/19 03:38:06;;;;;;;8.03;4.80;;;;;;;-2.13;100.00;99901.50;4989835;28;20367;-64
2022/01/19 03:40:34;;;;;;;7.80;4.87;;;;;;;-2.16;100.00;99898.19;4989945;28;20196;-64
2022/01/19 03:43:02;;;;;;;9.47;4.83;;;;;;;-2.17;100.00;99894.78;4991279;28;20195;-63
2022/01/19 03:45:53;;;;;;;10.03;4.47;;;;;;;-2.13;100.00;99893.00;4989728;28;20204;-64
2022/01/19 03:48:35;;;;;;;8.40;4.13;;;;;;;-2.18;100.00;99876.91;4991182;28;20216;-64
2022/01/19 03:51:03;;;;;;;10.57;4.50;;;;;;;-2.17;100.00;99884.53;4990813;28;20207;-63
2022/01/19 03:53:30;;;;;;;9.33;4.70;;;;;;;-2.12;100.00;99889.56;4989414;28;20270;-63
2022/01/19 03:55:59;;;;;;;10.30;5.13;;;;;;;-2.05;100.00;99880.81;4989723;28;20199;-63
2022/01/19 03:58:26;;;;;;;9.17;4.67;;;;;;;-2.03;100.00;99886.72;4989831;28;20217;-62
2022/01/19 04:00:56;;;;;;;11.30;4.97;;;;;;;-2.04;100.00;99886.78;4990788;28;20580;-62
2022/01/19 04:03:30;;;;;;;8.37;4.67;;;;;;;-2.07;100.00;99880.00;4989619;28;20205;-63
2022/01/19 04:06:03;;;;;;;7.70;4.67;;;;;;;-1.97;100.00;99880.63;4989537;28;20199;-62
2022/01/19 04:08:30;;;;;;;9.37;4.20;;;;;;;-1.89;100.00;99877.84;4989363;28;20767;-63
2022/01/19 04:10:59;;;;;;;7.10;4.40;;;;;;;-1.80;100.00;99870.78;4989199;28;20586;-63
2022/01/19 04:13:33;;;;;;;8.47;4.90;;;;;;;-1.84;100.00;99871.75;4989417;28;20200;-63
2022/01/19 04:16:00;;;;;;;9.70;5.50;;;;;;;-1.95;100.00;99869.47;4987193;28;20200;-63
2022/01/19 04:18:27;;;;;;;10.70;4.47;;;;;;;-2.04;100.00;99864.59;4989048;28;20226;-63
2022/01/19 04:20:54;;;;;;;9.00;4.43;;;;;;;-2.03;100.00;99861.16;4989900;28;20193;-65
2022/01/19 04:23:25;;;;;;;10.03;4.23;;;;;;;-2.04;100.00;99856.91;4989047;28;20462;-64
2022/01/19 04:25:52;;;;;;;8.30;4.07;;;;;;;-2.16;100.00;99852.97;4989974;28;20200;-64
2022/01/19 04:28:21;;;;;;;8.23;4.70;;;;;;;-2.33;100.00;99845.72;4989066;28;20278;-62
2022/01/19 04:30:51;;;;;;;9.97;4.20;;;;;;;-2.35;100.00;99847.50;4989079;28;20200;-63
2022/01/19 04:33:23;;;;;;;6.40;3.73;;;;;;;-2.32;100.00;99851.66;4989099;28;20223;-63
2022/01/19 04:35:52;;;;;;;9.15;5.50;;;;;;;-2.23;100.00;99856.56;4988989;28;20452;-62
2022/01/19 04:44:14;;;;;;;12.00;4.60;;;;;;;-2.33;100.00;99855.97;4988498;28;20204;-63
2022/01/19 05:03:46;;;;;;;7.53;4.20;;;;;;;-2.44;100.00;99845.16;4991794;28;20220;-64
2022/01/19 05:06:25;;;;;;;10.07;3.87;;;;;;;-2.46;100.00;99850.28;4992548;28;20745;-64
2022/01/19 05:08:58;;;;;;;9.63;4.13;;;;;;;-2.50;100.00;99847.88;4992216;28;20289;-64
2022/01/19 05:14:12;;;;;;;8.47;4.50;;;;;;;-2.60;100.00;99847.22;4972834;28;20204;-63
2022/01/19 05:16:41;;;;;;;7.93;3.93;;;;;;;-2.68;100.00;99853.41;4973094;28;20195;-65
2022/01/19 05:19:08;;;;;;;8.60;4.50;;;;;;;-2.68;100.00;99850.84;4973017;28;20187;-64
2022/01/19 05:21:37;;;;;;;7.43;4.43;;;;;;;-2.69;100.00;99854.28;4972861;28;20194;-63
2022/01/19 05:24:10;;;;;;;9.63;4.77;;;;;;;-2.68;100.00;99858.50;4974264;28;20296;-64
2022/01/19 05:26:40;;;;;;;8.20;4.07;;;;;;;-2.68;100.00;99855.94;4983426;28;20200;-64
2022/01/19 05:29:09;;;;;;;9.97;4.40;;;;;;;-2.65;100.00;99857.59;4973002;28;20201;-65
2022/01/19 05:31:36;;;;;;;7.47;3.93;;;;;;;-2.67;100.00;99856.78;4985610;28;20226;-63
2022/01/19 05:34:05;;;;;;;9.37;4.00;;;;;;;-2.72;100.00;99851.78;4991463;28;20199;-63
2022/01/19 05:36:41;;;;;;;9.23;4.63;;;;;;;-2.72;100.00;99840.72;4992072;28;20192;-63
2022/01/19 05:39:30;;;;;;;7.90;4.77;;;;;;;-2.76;100.00;99831.44;4992149;28;20593;-64
2022/01/19 05:42:14;;;;;;;6.80;4.07;;;;;;;-2.74;100.00;99814.34;4993156;28;20179;-64
2022/01/19 05:44:43;;;;;;;8.77;4.40;;;;;;;-2.70;100.00;99816.81;4991823;28;20198;-64
2022/01/19 05:47:10;;;;;;;9.20;4.50;;;;;;;-2.75;100.00;99810.13;4992224;28;20217;-64
2022/01/19 05:49:39;;;;;;;8.33;4.27;;;;;;;-2.79;100.00;99813.63;4992027;28;20255;-64
2022/01/19 05:52:07;;;;;;;8.03;4.77;;;;;;;-2.85;100.00;99807.78;4989309;28;20264;-64
2022/01/19 05:54:34;;;;;;;34.73;11.57;;;;;;;-2.85;100.00;99802.66;4991027;28;20199;-64
2022/01/19 05:57:04;;;;;;;18.73;8.30;;;;;;;-2.87;100.00;99809.53;4993240;28;20219;-64
2022/01/19 05:59:35;;;;;;;11.17;5.77;;;;;;;-2.82;100.00;99806.88;4992066;28;20259;-64
2022/01/19 06:02:02;;;;;;;10.07;4.57;;;;;;;-2.76;100.00;99813.53;4991488;28;20198;-64
2022/01/19 06:04:29;;;;;;;13.27;5.07;;;;;;;-2.87;100.00;99812.09;4991282;28;20254;-64
2022/01/19 06:07:17;;;;;;;7.30;4.40;;;;;;;-2.92;100.00;99816.47;4991494;28;20584;-64
2022/01/19 06:10:05;;;;;;;12.80;5.33;;;;;;;-2.91;100.00;99820.69;4991461;28;20273;-64
2022/01/19 06:12:41;;;;;;;15.27;6.47;;;;;;;-2.85;100.00;99812.06;4991664;28;20211;-64
2022/01/19 06:15:09;;;;;;;25.40;11.13;;;;;;;-2.89;100.00;99810.47;4991175;28;20199;-64
2022/01/19 06:17:35;;;;;;;20.97;11.40;;;;;;;-2.84;100.00;99818.84;4991336;28;20718;-64
2022/01/19 06:20:06;;;;;;;14.50;6.63;;;;;;;-2.85;100.00;99812.88;4991179;28;20742;-64
2022/01/19 06:22:34;;;;;;;10.63;5.50;;;;;;;-2.84;100.00;99808.63;4991463;28;20187;-64
2022/01/19 06:25:01;;;;;;;10.37;4.83;;;;;;;-2.87;100.00;99808.72;4990748;28;20188;-64
2022/01/19 06:27:28;;;;;;;10.03;5.33;;;;;;;-2.92;100.00;99805.41;4991271;28;20252;-64
2022/01/19 06:29:55;;;;;;;10.67;5.80;;;;;;;-2.86;100.00;99802.72;4991195;28;20199;-64
2022/01/19 06:32:21;;;;;;;12.63;5.50;;;;;;;-2.88;100.00;99801.91;4991069;28;20223;-64
2022/01/19 06:34:49;;;;;;;13.20;6.80;;;;;;;-2.96;100.00;99807.19;4990873;28;20656;-63
2022/01/19 06:37:22;;;;;;;9.27;5.20;;;;;;;-3.03;100.00;99803.09;4992490;28;20222;-64
2022/01/19 06:40:00;;;;;;;9.80;5.03;;;;;;;-2.92;100.00;99800.31;4990167;28;20195;-64
2022/01/19 06:42:29;;;;;;;11.77;5.47;;;;;;;-2.92;100.00;99795.19;4990621;28;20194;-64
2022/01/19 06:44:56;;;;;;;9.37;5.03;;;;;;;-3.00;100.00;99801.31;4990593;28;20199;-64
2022/01/19 06:47:23;;;;;;;10.03;4.90;;;;;;;-2.99;100.00;99799.59;4990984;28;20624;-64
2022/01/19 06:49:50;;;;;;;12.43;6.50;;;;;;;-2.96;100.00;99804.63;4991120;28;20190;-64
2022/01/19 06:52:26;;;;;;;10.63;5.20;;;;;;;-2.88;100.00;99799.34;4990993;28;20224;-63
2022/01/19 06:54:53;;;;;;;13.03;7.13;;;;;;;-2.90;100.00;99798.56;4990027;28;20195;-64
2022/01/19 06:57:21;;;;;;;12.77;6.93;;;;;;;-2.92;100.00;99798.56;4990616;28;20762;-63
2022/01/19 07:00:09;;;;;;;12.37;6.13;;;;;;;-2.89;100.00;99792.56;4992320;28;20207;-63
2022/01/19 07:02:59;;;;;;;14.10;5.20;;;;;;;-2.95;100.00;99790.97;4985588;28;20559;-64
2022/01/19 07:05:44;;;;;;;10.30;5.67;;;;;;;-2.93;100.00;99776.47;4991758;28;20206;-64
2022/01/19 07:08:30;;;;;;;11.43;5.93;;;;;;;-2.92;100.00;99774.75;4992116;28;20354;-64
2022/01/19 07:10:57;;;;;;;11.33;5.43;;;;;;;-2.99;100.00;99774.03;4990472;28;20199;-64
2022/01/19 07:13:26;;;;;;;60.37;24.43;;;;;;;-2.85;100.00;99773.72;4989743;28;20208;-64
2022/01/19 07:15:53;;;;;;;24.27;11.47;;;;;;;-2.95;100.00;99775.66;4991262;28;20272;-64
2022/01/19 07:18:20;;;;;;;9.70;5.23;;;;;;;-2.85;100.00;99778.84;4990257;28;20211;-64
2022/01/19 07:20:47;;;;;;;9.93;4.73;;;;;;;-2.87;100.00;99778.88;4991464;28;20215;-64
2022/01/19 07:23:14;;;;;;;13.30;7.33;;;;;;;-2.87;100.00;99775.47;4990336;28;20195;-64
2022/01/19 07:25:42;;;;;;;14.47;7.37;;;;;;;-2.86;100.00;99785.66;4989717;28;20199;-64
2022/01/19 07:28:11;;;;;;;18.77;8.40;;;;;;;-2.79;100.00;99782.94;4987749;28;20872;-64
2022/01/19 07:30:42;;;;;;;13.63;7.43;;;;;;;-2.81;100.00;99785.56;4987875;28;20254;-64
2022/01/19 07:33:09;;;;;;;9.47;5.13;;;;;;;-2.84;100.00;99788.19;4989631;28;20248;-64
2022/01/19 07:35:36;;;;;;;14.43;7.27;;;;;;;-2.83;100.00;99785.59;4989436;28;20286;-64
2022/01/19 07:38:03;;;;;;;14.33;6.67;;;;;;;-2.82;100.00;99786.44;4989916;28;20304;-64
2022/01/19 07:40:30;;;;;;;14.37;6.33;;;;;;;-2.84;100.00;99788.19;4989835;28;20638;-65
2022/01/19 07:42:57;;;;;;;12.17;6.33;;;;;;;-2.77;100.00;99784.59;4989795;28;20203;-64
2022/01/19 07:45:44;;;;;;;13.60;7.07;;;;;;;-2.70;100.00;99788.69;5006590;23;20309;-72
2022/01/19 07:48:33;;;;;;;60.10;26.47;;;;;;;-2.59;100.00;99793.53;4988282;28;20207;-72
2022/01/19 07:51:08;;;;;;;36.80;17.23;;;;;;;-2.54;100.00;99790.84;4991924;28;20199;-72
2022/01/19 07:53:35;;;;;;;37.50;16.63;;;;;;;-2.44;100.00;99786.34;4991564;28;20215;-73
2022/01/19 07:56:31;;;;;;;29.33;14.90;;;;;;;-2.45;100.00;99785.50;4985165;28;20290;-73
2022/01/19 07:59:12;;;;;;;20.97;12.37;;;;;;;-2.30;100.00;99789.38;4987884;28;20195;-73
2022/01/19 08:02:01;;;;;;;17.00;11.13;;;;;;;-2.28;100.00;99774.00;4989062;28;20303;-73
2022/01/19 08:05:04;;;;;;;15.83;8.33;;;;;;;-2.17;100.00;99778.84;4989470;28;20219;-73
2022/01/19 08:07:33;;;;;;;14.63;9.33;;;;;;;-2.15;100.00;99780.44;4989538;28;20674;-73
2022/01/19 08:10:01;;;;;;;16.83;10.37;;;;;;;-2.05;100.00;99783.59;4990567;28;20207;-73
2022/01/19 08:12:28;;;;;;;17.77;10.70;;;;;;;-1.89;100.00;99775.50;4989357;28;20290;-73
2022/01/19 08:14:55;;;;;;;22.57;12.10;;;;;;;-1.76;100.00;99779.38;4987462;28;20706;-74
2022/01/19 08:17:30;;;;;;;19.27;10.70;;;;;;;-1.66;100.00;99772.28;4989625;28;20505;-73
2022/01/19 08:19:59;;;;;;;19.43;11.37;;;;;;;-1.55;100.00;99775.34;4989304;28;20254;-73
2022/01/19 08:22:26;;;;;;;18.57;10.40;;;;;;;-1.50;100.00;99785.47;4989475;28;20195;-73
2022/01/19 08:25:13;;;;;;;20.23;9.90;;;;;;;-1.40;100.00;99784.31;4988473;28;20628;-73
2022/01/19 08:27:40;;;;;;;20.53;10.57;;;;;;;-1.28;100.00;99792.50;4985492;28;20295;-73
2022/01/19 08:30:10;;;;;;;21.67;12.00;;;;;;;-1.25;100.00;99782.19;5002675;28;20729;-74
2022/01/19 08:32:39;;;;;;;22.67;11.27;;;;;;;-1.21;100.00;99781.19;4989229;28;20209;-73
2022/01/19 08:35:14;;;;;;;85.53;32.13;;;;;;;-1.16;100.00;99783.59;4987248;28;20314;-74
2022/01/19 08:38:00;;;;;;;46.00;21.73;;;;;;;-1.16;100.00;99787.00;4987407;28;20279;-75
2022/01/19 08:40:33;;;;;;;36.97;16.83;;;;;;;-1.05;100.00;99787.50;4988840;28;20668;-72
2022/01/19 08:43:13;;;;;;;28.97;15.17;;;;;;;-1.01;100.00;99779.72;4984878;28;20183;-73
2022/01/19 08:45:39;;;;;;;30.70;14.20;;;;;;;-0.92;100.00;99784.53;4995806;28;20223;-73
2022/01/19 08:48:08;;;;;;;30.10;15.63;;;;;;;-0.80;100.00;99781.59;4992930;28;20580;-73
2022/01/19 08:50:55;;;;;;;28.10;12.73;;;;;;;-0.27;97.48;99772.16;4993873;28;20212;-74
2022/01/19 08:53:40;;;;;;;29.00;14.20;;;;;;;-0.28;97.34;99777.31;4994451;28;20321;-75
2022/01/19 08:56:25;;;;;;;25.70;12.57;;;;;;;-0.14;96.68;99787.13;4997183;28;20228;-76
2022/01/19 08:58:51;;;;;;;26.50;13.10;;;;;;;-0.11;96.48;99794.72;4999701;28;20200;-76
2022/01/19 09:01:18;;;;;;;19.47;10.67;;;;;;;0.03;94.75;99801.91;5007844;28;20663;-75
2022/01/19 09:03:46;;;;;;;22.47;10.87;;;;;;;0.25;92.70;99807.09;5010603;28;20192;-74
2022/01/19 09:06:13;;;;;;;23.13;11.63;;;;;;;0.31;91.73;99812.00;5010907;28;20215;-75
2022/01/19 09:08:40;;;;;;;22.10;11.60;;;;;;;0.34;91.08;99813.66;5011128;28;20193;-76
2022/01/19 09:11:07;;;;;;;20.53;12.87;;;;;;;0.36;90.19;99822.13;5010772;28;20193;-75
2022/01/19 09:13:34;;;;;;;22.17;12.30;;;;;;;0.32;90.62;99821.41;5010322;28;20627;-74
2022/01/19 09:16:01;;;;;;;23.63;12.67;;;;;;;0.39;90.27;99822.84;5010754;28;20296;-75
2022/01/19 09:18:28;;;;;;;22.63;12.10;;;;;;;0.43;91.09;99833.88;5010959;28;20192;-74
2022/01/19 09:20:56;;;;;;;25.27;12.53;;;;;;;0.56;90.42;99827.34;5010707;28;20197;-76
2022/01/19 09:23:23;;;;;;;24.23;13.07;;;;;;;0.52;90.02;99828.38;4993310;28;20267;-73
2022/01/19 09:25:50;;;;;;;25.83;11.93;;;;;;;0.52;90.14;99830.09;4990812;28;20205;-73
2022/01/19 09:28:17;;;;;;;23.13;12.30;;;;;;;0.68;89.41;99825.22;4989755;28;20653;-74
2022/01/19 09:30:45;;;;;;;22.63;12.33;;;;;;;0.69;88.79;99827.75;4990763;28;20192;-74
2022/01/19 09:33:19;;;;;;;39.70;17.57;;;;;;;0.79;88.30;99820.50;4989675;28;20213;-74
2022/01/19 09:36:03;;;;;;;25.57;13.03;;;;;;;0.86;88.24;99814.22;4988233;28;20215;-75
2022/01/19 09:38:34;;;;;;;24.50;13.30;;;;;;;0.80;89.39;99806.75;4994393;28;20296;-74
2022/01/19 09:41:01;;;;;;;27.83;13.20;;;;;;;0.88;88.91;99814.19;4974957;28;20202;-73
2022/01/19 09:43:28;;;;;;;25.90;13.00;;;;;;;0.88;88.81;99809.88;4998308;28;20188;-74
2022/01/19 09:45:57;;;;;;;31.47;14.67;;;;;;;0.90;88.85;99808.97;5013782;28;20230;-74
2022/01/19 09:48:25;;;;;;;23.70;14.03;;;;;;;0.87;88.61;99809.94;5004447;28;20189;-74
2022/01/19 09:50:52;;;;;;;28.97;15.23;;;;;;;1.00;87.70;99805.16;4996455;28;20181;-70
2022/01/19 09:53:19;;;;;;;29.57;14.37;;;;;;;0.90;87.97;99809.81;4998852;28;20235;-70
2022/01/19 09:55:48;;;;;;;27.70;13.87;;;;;;;1.05;87.56;99815.25;4995949;28;20221;-70
2022/01/19 09:58:17;;;;;;;24.10;14.40;;;;;;;1.02;88.06;99804.22;4993842;28;20206;-70
2022/01/19 10:00:45;;;;;;;33.53;15.93;;;;;;;1.03;88.81;99798.16;4992649;28;20211;-70
2022/01/19 10:03:14;;;;;;;29.20;15.83;;;;;;;1.14;86.58;99791.72;4994168;28;20195;-70
2022/01/19 10:05:55;;;;;;;29.67;15.80;;;;;;;1.22;87.61;99799.16;4993537;28;20237;-69
2022/01/19 10:08:36;;;;;;;30.90;15.27;;;;;;;1.25;86.53;99797.28;4994220;28;20596;-70
2022/01/19 10:11:20;;;;;;;26.30;14.77;;;;;;;1.14;86.89;99791.72;4993722;28;20507;-69
2022/01/19 10:19:22;;;;;;;28.43;14.80;;;;;;;1.15;88.42;99777.97;4993606;28;20207;-69
2022/01/19 10:22:13;;;;;;;25.37;14.17;;;;;;;1.06;88.37;99768.91;4992713;28;20209;-69
2022/01/19 10:24:50;;;;;;;25.97;14.63;;;;;;;1.08;88.03;99767.09;4978424;28;20661;-69
2022/01/19 10:27:25;;;;;;;27.43;15.70;;;;;;;1.15;87.90;99763.38;4993185;28;20189;-69
2022/01/19 10:29:54;;;;;;;23.90;14.53;;;;;;;1.21;87.42;99762.28;4993515;28;20197;-69
2022/01/19 10:32:23;;;;;;;25.63;14.13;;;;;;;1.23;86.76;99759.66;4993501;28;20189;-69
2022/01/19 10:34:50;;;;;;;27.90;14.43;;;;;;;1.30;87.54;99758.50;4993266;28;20299;-69
2022/01/19 10:37:24;;;;;;;23.40;13.83;;;;;;;1.30;86.72;99763.66;4993421;28;20192;-69
2022/01/19 10:39:54;;;;;;;24.50;14.60;;;;;;;1.22;88.54;99763.97;4993389;28;20184;-69
2022/01/19 10:45:14;;;;;;;23.23;13.97;;;;;;;1.53;86.57;99749.00;4988890;28;20220;-69
2022/01/19 10:47:56;;;;;;;30.53;16.07;;;;;;;1.55;86.46;99737.72;4995057;28;20209;-69
2022/01/19 10:50:25;;;;;;;28.20;15.37;;;;;;;1.61;86.57;99732.31;4993593;28;20285;-70
2022/01/19 10:52:54;;;;;;;29.57;15.27;;;;;;;1.79;85.81;99740.16;4992253;28;20193;-68
2022/01/19 10:55:30;;;;;;;29.10;15.33;;;;;;;1.85;85.00;99729.56;4992183;28;20213;-70
2022/01/19 10:58:00;;;;;;;31.47;15.90;;;;;;;1.96;86.28;99729.09;4993194;28;20198;-69
2022/01/19 11:00:29;;;;;;;31.47;15.03;;;;;;;2.01;84.99;99732.28;4992863;28;20592;-69
2022/01/19 11:02:59;;;;;;;26.87;15.77;;;;;;;2.10;84.98;99732.78;4993226;28;20204;-73
2022/01/19 11:05:44;;;;;;;26.27;16.98;;;;;;;2.21;83.04;99735.72;4991722;28;20432;-72
2022/01/19 11:08:11;;;;;;;27.80;15.00;;;;;;;2.28;83.57;99728.53;4992894;28;20189;-72
2022/01/19 11:10:38;;;;;;;28.73;14.70;;;;;;;2.24;83.81;99724.41;4990720;28;20220;-72
2022/01/19 11:13:14;;;;;;;24.40;14.37;;;;;;;2.31;84.03;99725.81;4992658;28;20193;-73
2022/01/19 11:15:42;;;;;;;25.17;14.47;;;;;;;2.33;83.68;99724.00;4992334;28;20208;-72
2022/01/19 11:18:10;;;;;;;24.37;14.20;;;;;;;2.30;83.46;99724.13;4992885;28;20672;-72
2022/01/19 11:20:43;;;;;;;30.23;14.83;;;;;;;2.41;84.08;99709.03;4992545;28;20189;-71
2022/01/19 11:23:19;;;;;;;29.80;13.63;;;;;;;2.42;83.31;99715.84;4992912;28;20193;-73
2022/01/19 11:25:57;;;;;;;24.57;14.37;;;;;;;2.45;82.14;99705.38;4992045;28;20680;-73
2022/01/19 11:28:33;;;;;;;24.63;12.70;;;;;;;2.56;81.42;99699.75;4992853;28;20228;-73
2022/01/19 11:31:02;;;;;;;23.97;12.27;;;;;;;2.61;80.60;99694.34;4992327;28;20189;-72
2022/01/19 11:33:30;;;;;;;22.77;12.50;;;;;;;2.73;80.19;99700.66;4992467;28;20239;-72
2022/01/19 11:36:00;;;;;;;24.10;13.17;;;;;;;2.73;79.86;99685.19;4992497;28;20216;-74
2022/01/19 11:38:41;;;;;;;23.80;12.47;;;;;;;2.78;78.56;99683.22;4992719;28;20207;-71
2022/01/19 11:41:40;;;;;;;24.87;11.97;;;;;;;2.87;78.45;99685.34;4990905;28;20565;-73
2022/01/19 11:44:10;;;;;;;25.13;12.27;;;;;;;2.77;78.75;99684.13;4992038;28;20193;-71
2022/01/19 11:46:40;;;;;;;24.20;12.47;;;;;;;2.86;78.50;99680.28;4992220;28;20722;-73
2022/01/19 11:49:09;;;;;;;24.00;13.13;;;;;;;2.84;79.21;99680.34;4992417;28;20181;-72
2022/01/19 11:51:38;;;;;;;26.63;13.23;;;;;;;2.86;78.82;99677.69;4992038;28;20216;-74
2022/01/19 11:54:08;;;;;;;24.90;13.63;;;;;;;2.95;78.59;99674.66;4991763;28;20216;-72
2022/01/19 11:57:11;;;;;;;25.93;13.40;;;;;;;2.92;79.33;99678.22;4992089;28;20213;-73
2022/01/19 12:00:13;;;;;;;23.83;12.77;;;;;;;2.88;78.90;99668.16;4990018;28;20235;-72
2022/01/19 12:02:53;;;;;;;22.93;12.20;;;;;;;2.77;79.14;99673.81;4989225;28;20185;-71
2022/01/19 12:05:26;;;;;;;24.70;12.70;;;;;;;2.74;79.15;99656.75;4991697;28;20280;-74
2022/01/19 12:07:57;;;;;;;24.63;12.27;;;;;;;2.89;78.34;99665.47;4992139;28;20663;-71
2022/01/19 12:10:44;;;;;;;21.43;12.77;;;;;;;2.93;77.58;99638.63;4991668;28;20580;-71
2022/01/19 12:13:29;;;;;;;21.30;11.17;;;;;;;3.16;77.23;99643.56;4992137;28;20239;-70
2022/01/19 12:16:02;;;;;;;36.13;18.20;;;;;;;3.32;77.01;99652.16;4991808;28;20692;-72
2022/01/19 12:18:45;;;;;;;24.03;12.00;;;;;;;3.37;75.74;99649.34;4992029;28;20189;-71
2022/01/19 12:21:14;;;;;;;24.70;12.83;;;;;;;3.24;76.46;99652.56;4991644;28;20185;-69
2022/01/19 12:23:42;;;;;;;22.47;12.60;;;;;;;3.38;76.89;99648.44;4991444;28;20188;-70
2022/01/19 12:26:10;;;;;;;23.37;13.17;;;;;;;3.44;76.09;99647.25;4990196;28;20204;-70
2022/01/19 12:28:43;;;;;;;22.57;12.33;;;;;;;3.43;76.33;99649.03;4991827;28;20190;-69
2022/01/19 12:31:37;;;;;;;21.83;11.50;;;;;;;3.43;75.79;99637.84;4991536;28;20193;-70
2022/01/19 12:34:20;;;;;;;15.73;7.82;;;;;;;3.35;76.64;99636.50;4989968;28;20452;-70
2022/01/19 12:36:54;;;;;;;22.63;12.43;;;;;;;3.36;75.66;99637.34;4989876;28;20238;-70
2022/01/19 12:39:44;;;;;;;24.17;12.83;;;;;;;3.38;76.28;99613.13;4990398;28;20246;-69
2022/01/19 12:42:17;;;;;;;21.07;12.37;;;;;;;3.48;75.92;99618.66;4991539;28;20206;-68
2022/01/19 12:44:48;;;;;;;19.80;11.40;;;;;;;3.50;75.82;99609.06;4989953;28;20190;-69
2022/01/19 12:47:48;;;;;;;20.40;11.57;;;;;;;3.77;74.11;99603.31;4988759;28;20209;-70
2022/01/19 12:50:37;;;;;;;20.90;11.63;;;;;;;3.83;74.41;99590.06;4990790;28;20666;-70
2022/01/19 12:53:08;;;;;;;21.00;11.77;;;;;;;3.88;73.68;99587.25;4972242;28;20186;-70
2022/01/19 12:55:37;;;;;;;19.07;10.67;;;;;;;3.96;72.49;99587.66;4971454;28;20704;-71